< < Back
Terminal Aerodrome Forecast


Current Version              Previous Versions:   1  2  3  4  5  6  7  8  9  

Terminal Aerodrome Forecast

258
FTUS42 KTAE 180500
TAFTLH
TAF
KTLH 180522Z 1806/1906 08008G18KT 6SM -SHRA BKN018
      TEMPO 1806/1810 2SM +RA BKN009
     FM181000 07010G20KT 2SM +RA BR BKN009
     FM181600 06015G25KT 2SM +TSRA BR BKN009CB
     FM190200 03010G20KT 3SM -DZ BR BKN007=

Latest METAR

732
SAUS80 KWBC 181800
MTRTLH
METAR KTLH 181753Z 06006KT 1SM +RA BR OVC007 17/14 A3000 RMK AO2 SLP157
P0032 60147 T01670144 10167 20161 $


USA.gov is the U.S. government's official web portal to all federal, state and local government web resources and services.